createdAt,value
2018-11-04T00:00:56.365Z,8.87
2018-11-04T00:03:27.323Z,17.77
2018-11-04T00:05:57.974Z,10.00
2018-11-04T00:08:28.647Z,9.43
2018-11-04T00:10:59.229Z,9.80
2018-11-04T00:13:29.834Z,17.70
2018-11-04T00:16:00.327Z,14.37
2018-11-04T00:18:30.725Z,8.37
2018-11-04T00:21:01.209Z,12.67
2018-11-04T00:23:31.756Z,15.73
2018-11-04T00:26:02.226Z,13.13
2018-11-04T00:31:13.556Z,8.50
2018-11-04T00:33:44.236Z,7.47
2018-11-04T00:36:14.813Z,9.90
2018-11-04T00:38:45.392Z,9.87
2018-11-04T00:41:15.758Z,8.67
2018-11-04T00:43:46.338Z,8.57
2018-11-04T00:46:16.798Z,16.43
2018-11-04T00:48:47.586Z,11.63
2018-11-04T00:51:18.467Z,6.47
2018-11-04T00:53:48.953Z,9.47
2018-11-04T00:56:19.582Z,8.43
2018-11-04T00:58:50.077Z,16.83
2018-11-04T01:01:20.641Z,9.97
2018-11-04T01:03:51.201Z,10.70
2018-11-04T01:06:21.720Z,11.03
2018-11-04T01:08:52.477Z,9.20
2018-11-04T01:11:23.023Z,34.20
2018-11-04T01:13:53.492Z,15.53
2018-11-04T01:16:24.158Z,17.10
2018-11-04T01:18:55.076Z,13.67
2018-11-04T01:21:25.622Z,48.70
2018-11-04T01:28:57.677Z,24.23
2018-11-04T01:31:28.197Z,9.47
2018-11-04T01:33:59.792Z,9.60
2018-11-04T01:36:30.250Z,10.70
2018-11-04T01:39:00.786Z,13.37
2018-11-04T01:41:31.315Z,10.87
2018-11-04T01:44:01.878Z,7.80
2018-11-04T01:46:32.606Z,8.43
2018-11-04T01:49:03.151Z,11.20
2018-11-04T01:51:33.680Z,9.67
2018-11-04T01:54:04.139Z,10.37
2018-11-04T01:56:34.663Z,15.37
2018-11-04T01:59:05.141Z,31.87
2018-11-04T02:01:35.574Z,11.87
2018-11-04T02:04:06.389Z,13.60
2018-11-04T02:06:36.944Z,13.70
2018-11-04T02:09:10.307Z,15.87
2018-11-04T02:11:40.975Z,14.43
2018-11-04T02:14:11.455Z,13.40
2018-11-04T02:16:42.234Z,11.97
2018-11-04T02:19:13.055Z,12.93
2018-11-04T02:21:43.606Z,14.23
2018-11-04T02:24:14.139Z,12.50
2018-11-04T02:26:45.345Z,18.27
2018-11-04T02:29:16.659Z,11.03
2018-11-04T02:31:47.465Z,12.40
2018-11-04T02:34:17.892Z,10.50
2018-11-04T02:39:30.193Z,11.93
2018-11-04T02:42:00.656Z,292.63
2018-11-04T02:47:11.165Z,109.07
2018-11-04T02:49:41.594Z,8.00
2018-11-04T02:52:12.439Z,382.00
2018-11-04T02:54:42.858Z,10.57
2018-11-04T02:57:13.428Z,7.87
2018-11-04T02:59:44.525Z,28.47
2018-11-04T03:02:15.721Z,8.47
2018-11-04T03:04:46.509Z,26.40
2018-11-04T03:07:17.104Z,90.27
2018-11-04T03:09:47.649Z,9.60
2018-11-04T03:12:18.106Z,16.57
2018-11-04T03:14:48.537Z,8.73
2018-11-04T03:17:18.951Z,117.63
2018-11-04T03:19:49.599Z,231.30
2018-11-04T03:22:20.124Z,47.47
2018-11-04T03:24:50.726Z,477.60
2018-11-04T03:27:21.277Z,91.93
2018-11-04T03:29:51.749Z,464.43
2018-11-04T03:32:22.238Z,527.70
2018-11-04T03:34:52.826Z,475.07
2018-11-04T03:37:23.382Z,215.33
2018-11-04T03:39:53.893Z,271.20
2018-11-04T03:42:24.411Z,344.40
2018-11-04T03:44:55.344Z,281.27
2018-11-04T03:47:26.586Z,211.50
2018-11-04T03:49:57.555Z,37.67
2018-11-04T03:52:28.090Z,29.80
2018-11-04T03:54:58.732Z,23.60
2018-11-04T03:57:29.167Z,9.17
2018-11-04T03:59:59.743Z,10.50
2018-11-04T04:02:30.212Z,5.20
2018-11-04T04:05:01.021Z,6.03
2018-11-04T04:07:31.630Z,17.40
2018-11-04T04:10:02.000Z,6.03
2018-11-04T04:12:32.454Z,16.53
2018-11-04T04:15:03.080Z,7.67
2018-11-04T04:17:33.640Z,9.93
2018-11-04T04:20:04.121Z,10.60
2018-11-04T04:22:34.721Z,6.97
2018-11-04T04:25:05.294Z,21.00
2018-11-04T04:27:35.836Z,8.33
2018-11-04T04:30:08.149Z,7.33
2018-11-04T04:32:38.625Z,8.10
2018-11-04T04:35:10.086Z,29.23
2018-11-04T04:37:40.972Z,9.13
2018-11-04T04:40:11.795Z,10.67
2018-11-04T04:42:42.253Z,8.50
2018-11-04T04:45:12.862Z,134.00
2018-11-04T04:47:43.398Z,184.73
2018-11-04T04:50:13.918Z,346.97
2018-11-04T04:52:44.354Z,11.13
2018-11-04T04:55:14.859Z,10.73
2018-11-04T04:57:45.280Z,134.80
2018-11-04T05:00:16.312Z,95.20
2018-11-04T05:02:46.765Z,134.90
2018-11-04T05:05:17.478Z,9.00
2018-11-04T05:07:47.986Z,19.37
2018-11-04T05:10:18.528Z,10.47
2018-11-04T05:12:49.013Z,12.40
2018-11-04T05:15:20.347Z,131.87
2018-11-04T05:17:50.848Z,55.40
2018-11-04T05:23:00.486Z,12.60
2018-11-04T05:25:30.964Z,14.63
2018-11-04T05:28:01.480Z,50.40
2018-11-04T05:30:31.964Z,12.47
2018-11-04T05:33:02.443Z,12.20
2018-11-04T05:35:33.873Z,12.53
2018-11-04T05:38:04.418Z,12.63
2018-11-04T05:40:35.133Z,13.97
2018-11-04T05:43:05.771Z,18.10
2018-11-04T05:45:36.247Z,14.90
2018-11-04T05:48:06.909Z,18.60
2018-11-04T05:50:38.215Z,15.60
2018-11-04T05:53:08.706Z,18.67
2018-11-04T05:55:40.117Z,14.07
2018-11-04T05:58:10.579Z,14.10
2018-11-04T06:00:41.109Z,11.93
2018-11-04T06:03:11.623Z,17.37
2018-11-04T06:08:21.212Z,24.87
2018-11-04T06:13:37.857Z,19.20
2018-11-04T06:16:08.772Z,19.73
2018-11-04T06:18:39.263Z,19.83
2018-11-04T06:21:09.873Z,20.37
2018-11-04T06:23:40.306Z,16.47
2018-11-04T06:26:10.868Z,11.60
2018-11-04T06:28:41.302Z,16.97
2018-11-04T06:31:11.856Z,15.37
2018-11-04T06:33:42.360Z,16.97
2018-11-04T06:36:12.739Z,17.60
2018-11-04T06:38:43.294Z,12.17
2018-11-04T06:41:13.801Z,11.67
2018-11-04T06:43:44.175Z,9.47
2018-11-04T06:46:14.678Z,9.53
2018-11-04T06:48:45.204Z,7.90
2018-11-04T06:51:15.759Z,8.73
2018-11-04T06:53:46.216Z,8.70
2018-11-04T06:56:16.751Z,9.77
2018-11-04T06:58:47.350Z,7.60
2018-11-04T07:01:17.789Z,14.87
2018-11-04T07:03:58.901Z,6.50
2018-11-04T07:06:29.901Z,12.70
2018-11-04T07:09:00.622Z,9.77
2018-11-04T07:11:31.248Z,9.23
2018-11-04T07:14:01.674Z,10.13
2018-11-04T07:16:32.091Z,10.13
2018-11-04T07:19:02.467Z,11.10
2018-11-04T07:21:33.150Z,12.03
2018-11-04T07:24:04.109Z,8.97
2018-11-04T07:26:34.927Z,10.30
2018-11-04T07:29:05.690Z,4.43
2018-11-04T07:31:36.573Z,6.70
2018-11-04T07:34:07.393Z,7.10
2018-11-04T07:36:37.860Z,8.40
2018-11-04T07:39:10.977Z,8.23
2018-11-04T07:41:41.626Z,10.93
2018-11-04T07:44:12.996Z,5.93
2018-11-04T07:46:43.496Z,10.47
2018-11-04T07:49:14.007Z,9.30
2018-11-04T07:51:44.880Z,8.43
2018-11-04T07:54:15.561Z,9.23
2018-11-04T07:56:46.489Z,8.07
2018-11-04T07:59:16.965Z,11.47
2018-11-04T08:01:47.417Z,7.93
2018-11-04T08:04:17.907Z,4.37
2018-11-04T08:06:48.447Z,5.93
2018-11-04T08:09:18.826Z,9.13
2018-11-04T08:11:49.473Z,7.63
2018-11-04T08:14:20.078Z,10.30
2018-11-04T08:16:50.513Z,7.40
2018-11-04T08:19:20.984Z,7.57
2018-11-04T08:21:51.478Z,6.93
2018-11-04T08:24:22.009Z,10.00
2018-11-04T08:26:52.470Z,4.53
2018-11-04T08:29:22.957Z,12.10
2018-11-04T08:31:53.822Z,9.43
2018-11-04T08:34:24.262Z,9.30
2018-11-04T08:36:54.842Z,6.83
2018-11-04T08:39:25.418Z,9.43
2018-11-04T08:41:56.611Z,10.87
2018-11-04T08:44:27.032Z,13.07
2018-11-04T08:46:57.591Z,10.27
2018-11-04T08:49:27.987Z,11.33
2018-11-04T08:51:58.633Z,8.47
2018-11-04T08:54:29.202Z,7.27
2018-11-04T08:56:59.648Z,6.03
2018-11-04T08:59:30.111Z,7.37
2018-11-04T09:02:00.591Z,9.27
2018-11-04T09:04:31.063Z,5.73
2018-11-04T09:07:01.546Z,10.67
2018-11-04T09:09:32.100Z,7.77
2018-11-04T09:12:03.640Z,9.03
2018-11-04T09:14:34.242Z,11.80
2018-11-04T09:17:04.753Z,8.50
2018-11-04T09:19:35.221Z,9.47
2018-11-04T09:22:06.933Z,7.13
2018-11-04T09:24:37.418Z,7.47
2018-11-04T09:27:08.009Z,9.33
2018-11-04T09:29:38.567Z,8.67
2018-11-04T09:32:09.211Z,6.33
2018-11-04T09:34:39.733Z,12.37
2018-11-04T09:37:10.250Z,8.60
2018-11-04T09:39:40.725Z,10.43
2018-11-04T09:42:11.578Z,11.93
2018-11-04T09:44:42.264Z,4.90
2018-11-04T09:47:12.899Z,8.47
2018-11-04T09:49:43.458Z,6.07
2018-11-04T09:52:14.126Z,6.13
2018-11-04T09:54:44.604Z,12.13
2018-11-04T09:57:15.131Z,5.37
2018-11-04T09:59:45.548Z,7.67
2018-11-04T10:02:16.884Z,11.37
2018-11-04T10:04:47.582Z,7.80
2018-11-04T10:07:18.297Z,5.53
2018-11-04T10:09:48.811Z,10.23
2018-11-04T10:12:19.595Z,12.47
2018-11-04T10:14:50.322Z,7.70
2018-11-04T10:17:20.884Z,19.83
2018-11-04T10:19:51.592Z,5.90
2018-11-04T10:22:21.904Z,12.87
2018-11-04T10:24:52.954Z,4.60
2018-11-04T10:27:23.359Z,7.63
2018-11-04T10:29:53.868Z,7.37
2018-11-04T10:32:24.608Z,13.57
2018-11-04T10:34:55.276Z,11.10
2018-11-04T10:37:25.934Z,12.00
2018-11-04T10:39:56.428Z,7.23
2018-11-04T10:42:27.037Z,15.57
2018-11-04T10:44:57.482Z,8.67
2018-11-04T10:47:28.009Z,8.43
2018-11-04T10:49:58.569Z,9.43
2018-11-04T10:52:29.115Z,13.77
2018-11-04T10:54:59.605Z,9.30
2018-11-04T10:57:30.173Z,7.57
2018-11-04T11:00:00.653Z,4.60
2018-11-04T11:02:31.147Z,9.30
2018-11-04T11:05:01.624Z,15.50
2018-11-04T11:07:32.434Z,9.93
2018-11-04T11:10:03.053Z,7.97
2018-11-04T11:12:33.725Z,8.50
2018-11-04T11:15:04.237Z,6.87
2018-11-04T11:17:34.725Z,13.70
2018-11-04T11:20:05.580Z,9.37
2018-11-04T11:22:36.238Z,12.27
2018-11-04T11:25:07.262Z,9.60
2018-11-04T11:27:37.682Z,10.20
2018-11-04T11:30:08.327Z,5.00
2018-11-04T11:32:38.935Z,4.93
2018-11-04T11:35:09.603Z,18.23
2018-11-04T11:37:40.137Z,12.43
2018-11-04T11:40:11.052Z,10.30
2018-11-04T11:42:41.789Z,9.07
2018-11-04T11:45:12.249Z,14.70
2018-11-04T11:47:42.669Z,6.73
2018-11-04T11:50:13.101Z,10.13
2018-11-04T11:52:43.767Z,10.77
2018-11-04T11:55:14.317Z,4.43
2018-11-04T11:57:45.036Z,6.23
2018-11-04T12:00:16.607Z,10.40
2018-11-04T12:02:47.008Z,10.23
2018-11-04T12:05:17.494Z,8.50
2018-11-04T12:07:47.878Z,13.43
2018-11-04T12:10:18.794Z,9.37
2018-11-04T12:12:49.397Z,4.73
2018-11-04T12:15:20.601Z,4.87
2018-11-04T12:17:51.189Z,6.13
2018-11-04T12:20:21.822Z,14.43
2018-11-04T12:22:52.479Z,7.17
2018-11-04T12:25:23.144Z,5.33
2018-11-04T12:27:53.654Z,10.90
2018-11-04T12:30:24.265Z,6.03
2018-11-04T12:32:54.926Z,9.73
2018-11-04T12:35:25.581Z,12.33
2018-11-04T12:37:55.874Z,10.97
2018-11-04T12:40:26.777Z,6.10
2018-11-04T12:42:57.210Z,9.57
2018-11-04T12:45:27.780Z,7.07
2018-11-04T12:47:58.291Z,17.07
2018-11-04T12:50:28.999Z,9.17
2018-11-04T12:52:59.721Z,8.73
2018-11-04T12:55:30.244Z,4.73
2018-11-04T12:58:00.681Z,7.77
2018-11-04T13:00:31.118Z,10.53
2018-11-04T13:03:01.664Z,7.20
2018-11-04T13:05:32.165Z,6.50
2018-11-04T13:08:02.653Z,7.90
2018-11-04T13:10:33.208Z,7.07
2018-11-04T13:13:03.904Z,13.10
2018-11-04T13:15:34.434Z,9.00
2018-11-04T13:18:04.836Z,11.23
2018-11-04T13:21:59.269Z,9.80
2018-11-04T13:24:29.876Z,11.77
2018-11-04T13:27:00.395Z,10.97
2018-11-04T13:29:30.926Z,12.00
2018-11-04T13:32:01.534Z,6.53
2018-11-04T13:34:32.349Z,5.97
2018-11-04T13:37:02.925Z,8.73
2018-11-04T13:39:33.379Z,7.03
2018-11-04T13:42:03.929Z,5.73
2018-11-04T13:44:34.432Z,10.07
2018-11-04T13:47:04.908Z,14.20
2018-11-04T13:49:35.532Z,6.13
2018-11-04T13:52:05.975Z,8.90
2018-11-04T13:54:36.568Z,6.53
2018-11-04T13:57:07.221Z,14.10
2018-11-04T13:59:38.018Z,12.73
2018-11-04T14:02:08.482Z,3.40
2018-11-04T14:04:38.935Z,11.67
2018-11-04T14:07:09.573Z,8.77
2018-11-04T14:09:40.602Z,7.20
2018-11-04T14:12:11.103Z,5.03
2018-11-04T14:14:41.833Z,8.47
2018-11-04T14:17:12.490Z,13.60
2018-11-04T14:19:43.000Z,17.37
2018-11-04T14:22:13.512Z,12.20
2018-11-04T14:24:43.955Z,9.90
2018-11-04T14:27:14.432Z,8.43
2018-11-04T14:29:44.778Z,8.00
2018-11-04T14:32:15.179Z,11.40
2018-11-04T14:34:45.938Z,11.57
2018-11-04T14:37:16.422Z,8.97
2018-11-04T14:39:47.238Z,9.27
2018-11-04T14:42:17.810Z,8.87
2018-11-04T14:44:48.350Z,7.67
2018-11-04T14:47:18.945Z,4.90
2018-11-04T14:49:49.417Z,5.53
2018-11-04T14:52:19.835Z,8.30
2018-11-04T14:54:50.512Z,18.33
2018-11-04T14:57:20.912Z,7.40
2018-11-04T14:59:51.474Z,10.60
2018-11-04T15:02:22.054Z,12.37
2018-11-04T15:04:52.542Z,12.80
2018-11-04T15:07:24.036Z,18.37
2018-11-04T15:09:54.553Z,7.17
2018-11-04T15:12:25.134Z,8.03
2018-11-04T15:14:55.997Z,14.00
2018-11-04T15:17:26.468Z,13.77
2018-11-04T15:19:56.969Z,15.00
2018-11-04T15:22:27.481Z,5.57
2018-11-04T15:24:57.913Z,8.90
2018-11-04T15:27:28.395Z,21.50
2018-11-04T15:29:58.847Z,21.07
2018-11-04T15:32:29.333Z,9.13
2018-11-04T15:34:59.914Z,6.80
2018-11-04T15:37:30.404Z,9.43
2018-11-04T15:40:00.897Z,12.63
2018-11-04T15:42:31.269Z,4.77
2018-11-04T15:45:01.722Z,7.10
2018-11-04T15:47:32.169Z,11.10
2018-11-04T15:50:02.710Z,9.33
2018-11-04T15:52:33.261Z,11.67
2018-11-04T15:55:03.706Z,8.53
2018-11-04T15:57:34.189Z,12.17
2018-11-04T16:00:04.839Z,9.93
2018-11-04T16:02:35.280Z,15.27
2018-11-04T16:05:06.465Z,7.83
2018-11-04T16:07:36.957Z,7.73
2018-11-04T16:10:08.609Z,7.37
2018-11-04T16:12:39.355Z,10.03
2018-11-04T16:15:12.234Z,11.83
2018-11-04T16:17:43.174Z,9.87
2018-11-04T16:20:14.908Z,12.50
2018-11-04T16:22:46.180Z,8.27
2018-11-04T16:25:16.934Z,6.97
2018-11-04T16:27:47.512Z,6.00
2018-11-04T16:30:18.005Z,3.83
2018-11-04T16:32:48.628Z,7.50
2018-11-04T16:35:19.254Z,9.70
2018-11-04T16:37:49.710Z,7.67
2018-11-04T16:40:20.270Z,12.30
2018-11-04T16:42:50.980Z,12.03
2018-11-04T16:45:21.511Z,10.00
2018-11-04T16:47:52.080Z,9.43
2018-11-04T16:50:22.639Z,7.03
2018-11-04T16:52:53.191Z,6.80
2018-11-04T16:55:23.893Z,11.67
2018-11-04T16:57:54.310Z,12.83
2018-11-04T17:00:24.844Z,8.40
2018-11-04T17:02:55.451Z,11.00
2018-11-04T17:05:26.099Z,10.77
2018-11-04T17:07:56.646Z,9.27
2018-11-04T17:10:27.303Z,12.03
2018-11-04T17:12:57.911Z,11.80
2018-11-04T17:15:28.626Z,11.17
2018-11-04T17:17:59.841Z,12.27
2018-11-04T17:20:30.352Z,16.07
2018-11-04T17:23:01.922Z,8.67
2018-11-04T17:25:32.413Z,8.67
2018-11-04T17:28:03.511Z,11.57
2018-11-04T17:30:34.041Z,14.80
2018-11-04T17:33:04.544Z,13.13
2018-11-04T17:35:35.416Z,8.67
2018-11-04T17:38:06.217Z,19.00
2018-11-04T17:40:36.755Z,12.93
2018-11-04T17:43:07.428Z,8.30
2018-11-04T17:45:37.954Z,6.77
2018-11-04T17:48:08.557Z,10.43
2018-11-04T17:53:19.181Z,14.30
2018-11-04T17:55:49.776Z,5.60
2018-11-04T17:58:20.208Z,8.23
2018-11-04T18:00:50.885Z,10.40
2018-11-04T18:03:21.299Z,9.83
2018-11-04T18:05:51.773Z,11.27
2018-11-04T18:08:22.301Z,9.57
2018-11-04T18:10:52.790Z,10.73
2018-11-04T18:13:23.283Z,8.70
2018-11-04T18:15:53.709Z,11.80
2018-11-04T18:18:24.222Z,7.27
2018-11-04T18:20:54.728Z,26.70
2018-11-04T18:23:25.232Z,10.00
2018-11-04T18:25:55.962Z,7.93
2018-11-04T18:28:26.411Z,10.30
2018-11-04T18:30:57.009Z,7.40
2018-11-04T18:33:27.389Z,9.47
2018-11-04T18:35:57.841Z,13.40
2018-11-04T18:38:28.323Z,12.17
2018-11-04T18:40:58.971Z,15.07
2018-11-04T18:43:29.386Z,15.57
2018-11-04T18:45:59.829Z,10.10
2018-11-04T18:48:30.351Z,10.77
2018-11-04T18:51:00.943Z,10.87
2018-11-04T18:53:31.409Z,13.07
2018-11-04T18:56:02.290Z,16.27
2018-11-04T18:58:32.848Z,11.50
2018-11-04T19:01:03.362Z,9.43
2018-11-04T19:03:33.840Z,7.67
2018-11-04T19:06:04.419Z,9.90
2018-11-04T19:08:34.898Z,15.33
2018-11-04T19:11:05.674Z,14.17
2018-11-04T19:13:36.730Z,16.97
2018-11-04T19:16:08.230Z,15.50
2018-11-04T19:18:38.753Z,9.10
2018-11-04T19:21:09.213Z,10.13
2018-11-04T19:23:39.739Z,11.00
2018-11-04T19:26:10.256Z,6.57
2018-11-04T19:28:40.847Z,10.43
2018-11-04T19:31:11.699Z,10.23
2018-11-04T19:33:42.228Z,10.90
2018-11-04T19:36:12.902Z,11.33
2018-11-04T19:38:43.399Z,13.77
2018-11-04T19:41:13.931Z,10.23
2018-11-04T19:43:44.462Z,18.17
2018-11-04T19:46:14.870Z,17.57
2018-11-04T19:48:45.691Z,14.53
2018-11-04T19:51:16.411Z,13.63
2018-11-04T19:53:46.921Z,8.77
2018-11-04T19:56:18.033Z,20.43
2018-11-04T19:58:48.681Z,11.97
2018-11-04T20:01:19.130Z,7.10
2018-11-04T20:03:49.644Z,11.80
2018-11-04T20:06:20.117Z,16.20
2018-11-04T20:08:55.525Z,13.20
2018-11-04T20:11:26.121Z,11.00
2018-11-04T20:14:01.379Z,9.83
2018-11-04T20:16:32.071Z,8.23
2018-11-04T20:20:11.009Z,9.73
2018-11-04T20:22:42.045Z,11.97
2018-11-04T20:25:17.587Z,13.07
2018-11-04T20:27:48.085Z,17.43
2018-11-04T20:30:18.560Z,7.93
2018-11-04T20:32:54.029Z,7.47
2018-11-04T20:35:27.605Z,12.50
2018-11-04T20:37:58.216Z,12.33
2018-11-04T20:40:33.529Z,10.13
2018-11-04T20:43:04.029Z,12.13
2018-11-04T20:45:34.488Z,9.17
2018-11-04T20:48:09.953Z,10.90
2018-11-04T20:50:45.278Z,11.47
2018-11-04T20:53:15.748Z,9.33
2018-11-04T20:55:51.117Z,14.53
2018-11-04T20:58:21.825Z,7.40
2018-11-04T21:00:52.102Z,14.53
2018-11-04T21:03:22.546Z,10.00
2018-11-04T21:05:53.077Z,8.07
2018-11-04T21:08:26.819Z,9.03
2018-11-04T21:10:57.379Z,14.77
2018-11-04T21:13:28.412Z,8.53
2018-11-04T21:15:58.998Z,12.73
2018-11-04T21:18:29.506Z,13.93
2018-11-04T21:20:59.866Z,10.90
2018-11-04T21:23:30.390Z,13.47
2018-11-04T21:26:00.941Z,10.57
2018-11-04T21:28:31.526Z,9.87
2018-11-04T21:31:02.168Z,9.83
2018-11-04T21:33:32.661Z,8.43
2018-11-04T21:36:03.133Z,10.73
2018-11-04T21:38:33.587Z,11.30
2018-11-04T21:41:04.115Z,12.40
2018-11-04T21:43:34.840Z,8.53
2018-11-04T21:46:05.174Z,9.33
2018-11-04T21:48:36.574Z,9.00
2018-11-04T21:51:07.196Z,9.53
2018-11-04T21:53:37.717Z,13.03
2018-11-04T21:56:08.978Z,8.00
2018-11-04T21:58:39.585Z,13.87
2018-11-04T22:01:10.192Z,13.13
2018-11-04T22:03:40.939Z,6.90
2018-11-04T22:06:11.512Z,12.30
2018-11-04T22:08:42.062Z,7.87
2018-11-04T22:11:12.470Z,8.33
2018-11-04T22:13:43.122Z,11.10
2018-11-04T22:16:13.601Z,9.60
2018-11-04T22:18:44.074Z,7.00
2018-11-04T22:21:14.615Z,5.67
2018-11-04T22:23:45.049Z,10.80
2018-11-04T22:26:15.633Z,6.60
2018-11-04T22:28:46.828Z,5.87
2018-11-04T22:31:17.260Z,7.03
2018-11-04T22:33:47.694Z,5.93
2018-11-04T22:36:18.220Z,9.50
2018-11-04T22:38:48.637Z,13.50
2018-11-04T22:41:19.063Z,8.33
2018-11-04T22:43:49.551Z,10.57
2018-11-04T22:46:20.046Z,12.27
2018-11-04T22:48:50.564Z,7.80
2018-11-04T22:51:21.153Z,13.27
2018-11-04T22:53:51.674Z,11.33
2018-11-04T22:56:22.328Z,17.57
2018-11-04T22:58:52.751Z,9.73
2018-11-04T23:01:23.277Z,14.10
2018-11-04T23:03:53.646Z,11.10
2018-11-04T23:06:24.281Z,7.07
2018-11-04T23:08:54.757Z,14.57
2018-11-04T23:11:25.173Z,16.53
2018-11-04T23:13:55.939Z,12.33
2018-11-04T23:16:26.427Z,10.13
2018-11-04T23:18:57.784Z,11.63
2018-11-04T23:21:28.261Z,8.97
